TKJ7LB LTAC-LTCG
Flight info
| Callsign | TKJ7LB |
|---|---|
| Flight time | 0h 58m |
| Altitude | 27000 |
| Route | ILHAN W71 ERGUN/N0456F350 UW71 TEMEL |
| Aircraft | A320/M-SDE3FGHIRWY/LB1 |
Departure
| Time | 2026-05-05 13:17 |
|---|---|
| Airport | Esenboğa International Airport (LTAC) |
Arrival
| Time | 2026-05-05 14:15 |
|---|---|
| Airport | Trabzon International Airport (LTCG) |
| Time | Latitude | Longitude | Altitude | Speed | Heading |
|---|---|---|---|---|---|
| 2026-05-05 13:05 | 40.11917 | 32.99294 | 3134 ft | 0 kts | 344° |
| 2026-05-05 13:06 | 40.11895 | 32.99302 | 3134 ft | 4 kts | 340° |
| 2026-05-05 13:06 | 40.11870 | 32.99316 | 3134 ft | 4 kts | 331° |
| 2026-05-05 13:07 | 40.11849 | 32.99336 | 3134 ft | 4 kts | 305° |
| 2026-05-05 13:07 | 40.11842 | 32.99359 | 3134 ft | 1 kts | 255° |
| 2026-05-05 13:07 | 40.11843 | 32.99365 | 3134 ft | 0 kts | 255° |
| 2026-05-05 13:08 | 40.11843 | 32.99363 | 3134 ft | 1 kts | 255° |
| 2026-05-05 13:09 | 40.11840 | 32.99347 | 3134 ft | 3 kts | 255° |
| 2026-05-05 13:09 | 40.11834 | 32.99314 | 3134 ft | 5 kts | 256° |
| 2026-05-05 13:09 | 40.11823 | 32.99267 | 3134 ft | 6 kts | 252° |
| 2026-05-05 13:09 | 40.11806 | 32.99208 | 3134 ft | 8 kts | 247° |
| 2026-05-05 13:10 | 40.11780 | 32.99139 | 3134 ft | 9 kts | 246° |
| 2026-05-05 13:10 | 40.11792 | 32.99059 | 3134 ft | 10 kts | 303° |
| 2026-05-05 13:10 | 40.11857 | 32.99056 | 3134 ft | 11 kts | 30° |
| 2026-05-05 13:10 | 40.11921 | 32.99114 | 3134 ft | 12 kts | 36° |
| 2026-05-05 13:11 | 40.11990 | 32.99178 | 3134 ft | 12 kts | 36° |
| 2026-05-05 13:11 | 40.12063 | 32.99248 | 3134 ft | 14 kts | 36° |
| 2026-05-05 13:11 | 40.12143 | 32.99323 | 3134 ft | 15 kts | 36° |
| 2026-05-05 13:11 | 40.12226 | 32.99404 | 3134 ft | 16 kts | 37° |
| 2026-05-05 13:12 | 40.12315 | 32.99492 | 3134 ft | 17 kts | 37° |
| 2026-05-05 13:12 | 40.12411 | 32.99582 | 3134 ft | 17 kts | 35° |
| 2026-05-05 13:12 | 40.12514 | 32.99678 | 3134 ft | 18 kts | 37° |
| 2026-05-05 13:12 | 40.12618 | 32.99780 | 3134 ft | 19 kts | 37° |
| 2026-05-05 13:13 | 40.12730 | 32.99887 | 3134 ft | 21 kts | 36° |
| 2026-05-05 13:13 | 40.12850 | 33.00000 | 3134 ft | 22 kts | 36° |
| 2026-05-05 13:13 | 40.12975 | 33.00119 | 3134 ft | 23 kts | 36° |
| 2026-05-05 13:13 | 40.13106 | 33.00244 | 3134 ft | 24 kts | 36° |
| 2026-05-05 13:14 | 40.13241 | 33.00375 | 3134 ft | 25 kts | 36° |
| 2026-05-05 13:14 | 40.13381 | 33.00508 | 3135 ft | 25 kts | 36° |
| 2026-05-05 13:14 | 40.13527 | 33.00644 | 3135 ft | 26 kts | 36° |
| 2026-05-05 13:14 | 40.13675 | 33.00790 | 3134 ft | 27 kts | 36° |
| 2026-05-05 13:15 | 40.13831 | 33.00937 | 3134 ft | 28 kts | 35° |
| 2026-05-05 13:15 | 40.13983 | 33.01069 | 3134 ft | 23 kts | 17° |
| 2026-05-05 13:15 | 40.14103 | 33.00977 | 3136 ft | 22 kts | 287° |
| 2026-05-05 13:15 | 40.14030 | 33.00822 | 3134 ft | 23 kts | 216° |
| 2026-05-05 13:16 | 40.13791 | 33.00588 | 3135 ft | 75 kts | 217° |
| 2026-05-05 13:16 | 40.13215 | 33.00035 | 3135 ft | 128 kts | 216° |
| 2026-05-05 13:16 | 40.12373 | 32.99228 | 3158 ft | 168 kts | 219° |
| 2026-05-05 13:16 | 40.11405 | 32.98380 | 3686 ft | 174 kts | 212° |
| 2026-05-05 13:17 | 40.10320 | 32.97621 | 4302 ft | 179 kts | 209° |
| 2026-05-05 13:17 | 40.09186 | 32.96894 | 4895 ft | 185 kts | 207° |
| 2026-05-05 13:17 | 40.07954 | 32.96160 | 5139 ft | 205 kts | 207° |
| 2026-05-05 13:17 | 40.06563 | 32.95363 | 5291 ft | 233 kts | 204° |
| 2026-05-05 13:18 | 40.04939 | 32.94704 | 5681 ft | 253 kts | 185° |
| 2026-05-05 13:18 | 40.03168 | 32.95171 | 6088 ft | 274 kts | 149° |
| 2026-05-05 13:18 | 40.01846 | 32.96971 | 6686 ft | 282 kts | 114° |
| 2026-05-05 13:18 | 40.01504 | 32.99453 | 7400 ft | 282 kts | 80° |
| 2026-05-05 13:19 | 40.02247 | 33.01783 | 8142 ft | 281 kts | 51° |
| 2026-05-05 13:19 | 40.03519 | 33.03723 | 8952 ft | 282 kts | 46° |
| 2026-05-05 13:19 | 40.04856 | 33.05611 | 9752 ft | 284 kts | 46° |
| 2026-05-05 13:19 | 40.06206 | 33.07544 | 10259 ft | 297 kts | 47° |
| 2026-05-05 13:20 | 40.07619 | 33.09649 | 10417 ft | 320 kts | 48° |
| 2026-05-05 13:20 | 40.09098 | 33.11944 | 10645 ft | 339 kts | 49° |
| 2026-05-05 13:20 | 40.10604 | 33.14358 | 11188 ft | 345 kts | 50° |
| 2026-05-05 13:20 | 40.12113 | 33.16824 | 11837 ft | 349 kts | 50° |
| 2026-05-05 13:21 | 40.13625 | 33.19319 | 12470 ft | 352 kts | 51° |
| 2026-05-05 13:21 | 40.15144 | 33.21846 | 13120 ft | 355 kts | 51° |
| 2026-05-05 13:21 | 40.16678 | 33.24397 | 13776 ft | 358 kts | 51° |
| 2026-05-05 13:21 | 40.18228 | 33.26965 | 14342 ft | 361 kts | 50° |
| 2026-05-05 13:22 | 40.19792 | 33.29549 | 14906 ft | 364 kts | 50° |
| 2026-05-05 13:22 | 40.21374 | 33.32153 | 15464 ft | 367 kts | 50° |
| 2026-05-05 13:22 | 40.22966 | 33.34768 | 16027 ft | 369 kts | 50° |
| 2026-05-05 13:22 | 40.24573 | 33.37407 | 16581 ft | 372 kts | 50° |
| 2026-05-05 13:23 | 40.26190 | 33.40074 | 17156 ft | 375 kts | 50° |
| 2026-05-05 13:23 | 40.27813 | 33.42761 | 17744 ft | 377 kts | 50° |
| 2026-05-05 13:23 | 40.29445 | 33.45470 | 18308 ft | 380 kts | 50° |
| 2026-05-05 13:23 | 40.31087 | 33.48201 | 18840 ft | 383 kts | 50° |
| 2026-05-05 13:24 | 40.32741 | 33.50953 | 19397 ft | 385 kts | 50° |
| 2026-05-05 13:24 | 40.34400 | 33.53718 | 19964 ft | 387 kts | 50° |
| 2026-05-05 13:24 | 40.35504 | 33.55557 | 20334 ft | 388 kts | 49° |
| 2026-05-05 13:24 | 40.37180 | 33.58344 | 20882 ft | 390 kts | 49° |
| 2026-05-05 13:25 | 40.38866 | 33.61149 | 21417 ft | 392 kts | 49° |
| 2026-05-05 13:25 | 40.40556 | 33.63962 | 21919 ft | 394 kts | 49° |
| 2026-05-05 13:25 | 40.42257 | 33.66793 | 22399 ft | 395 kts | 49° |
| 2026-05-05 13:25 | 40.43852 | 33.69754 | 22865 ft | 400 kts | 57° |
| 2026-05-05 13:26 | 40.45060 | 33.73059 | 23323 ft | 406 kts | 66° |
| 2026-05-05 13:26 | 40.45958 | 33.76595 | 23741 ft | 409 kts | 68° |
| 2026-05-05 13:26 | 40.46840 | 33.80151 | 24104 ft | 411 kts | 68° |
| 2026-05-05 13:26 | 40.47729 | 33.83727 | 24462 ft | 413 kts | 68° |
| 2026-05-05 13:27 | 40.48624 | 33.87322 | 24820 ft | 415 kts | 68° |
| 2026-05-05 13:27 | 40.49519 | 33.90929 | 25177 ft | 417 kts | 68° |
| 2026-05-05 13:27 | 40.50422 | 33.94560 | 25498 ft | 419 kts | 67° |
| 2026-05-05 13:27 | 40.51411 | 33.98167 | 25812 ft | 421 kts | 65° |
| 2026-05-05 13:28 | 40.52496 | 34.01744 | 26137 ft | 422 kts | 63° |
| 2026-05-05 13:28 | 40.53636 | 34.05300 | 26467 ft | 423 kts | 63° |
| 2026-05-05 13:28 | 40.54797 | 34.08870 | 26798 ft | 425 kts | 63° |
| 2026-05-05 13:28 | 40.55952 | 34.12458 | 27114 ft | 428 kts | 63° |
| 2026-05-05 13:29 | 40.57093 | 34.16077 | 27444 ft | 430 kts | 64° |
| 2026-05-05 13:29 | 40.58226 | 34.19734 | 27763 ft | 432 kts | 64° |
| 2026-05-05 13:29 | 40.59335 | 34.23357 | 28132 ft | 432 kts | 64° |
| 2026-05-05 13:29 | 40.60450 | 34.27024 | 28582 ft | 431 kts | 64° |
| 2026-05-05 13:30 | 40.61558 | 34.30682 | 29038 ft | 429 kts | 64° |
| 2026-05-05 13:30 | 40.62660 | 34.34327 | 29504 ft | 428 kts | 64° |
| 2026-05-05 13:30 | 40.63762 | 34.37959 | 29958 ft | 427 kts | 64° |
| 2026-05-05 13:30 | 40.64864 | 34.41583 | 30341 ft | 426 kts | 64° |
| 2026-05-05 13:31 | 40.65966 | 34.45214 | 30699 ft | 426 kts | 64° |
| 2026-05-05 13:31 | 40.67067 | 34.48842 | 31061 ft | 426 kts | 65° |
| 2026-05-05 13:31 | 40.68168 | 34.52465 | 31405 ft | 426 kts | 65° |
| 2026-05-05 13:31 | 40.69270 | 34.56091 | 31738 ft | 427 kts | 65° |
| 2026-05-05 13:32 | 40.70371 | 34.59727 | 32060 ft | 428 kts | 65° |
| 2026-05-05 13:32 | 40.71472 | 34.63368 | 32404 ft | 428 kts | 65° |
| 2026-05-05 13:32 | 40.72574 | 34.67021 | 32749 ft | 429 kts | 65° |
| 2026-05-05 13:32 | 40.73675 | 34.70673 | 33096 ft | 429 kts | 65° |
| 2026-05-05 13:33 | 40.74778 | 34.74339 | 33426 ft | 430 kts | 65° |
| 2026-05-05 13:33 | 40.75872 | 34.78011 | 33727 ft | 431 kts | 66° |
| 2026-05-05 13:33 | 40.76960 | 34.81703 | 34027 ft | 432 kts | 66° |
| 2026-05-05 13:33 | 40.78047 | 34.85403 | 34287 ft | 433 kts | 66° |
| 2026-05-05 13:34 | 40.79134 | 34.89106 | 34539 ft | 433 kts | 66° |
| 2026-05-05 13:34 | 40.80222 | 34.92818 | 34785 ft | 434 kts | 67° |
| 2026-05-05 13:34 | 40.81311 | 34.96546 | 34945 ft | 435 kts | 67° |
| 2026-05-05 13:34 | 40.82406 | 35.00294 | 34990 ft | 441 kts | 67° |
| 2026-05-05 13:35 | 40.84643 | 35.07945 | 34995 ft | 450 kts | 67° |
| 2026-05-05 13:35 | 40.86881 | 35.15620 | 34981 ft | 452 kts | 68° |
| 2026-05-05 13:36 | 40.89131 | 35.23378 | 34974 ft | 452 kts | 68° |
| 2026-05-05 13:36 | 40.91374 | 35.31144 | 34963 ft | 453 kts | 68° |
| 2026-05-05 13:37 | 40.93618 | 35.38934 | 34962 ft | 453 kts | 68° |
| 2026-05-05 13:37 | 40.95867 | 35.46722 | 34962 ft | 453 kts | 68° |
| 2026-05-05 13:38 | 40.98116 | 35.54522 | 34969 ft | 453 kts | 68° |
| 2026-05-05 13:38 | 41.00349 | 35.62331 | 34980 ft | 454 kts | 68° |
| 2026-05-05 13:39 | 41.02571 | 35.70156 | 35031 ft | 454 kts | 68° |
| 2026-05-05 13:39 | 41.04849 | 35.77962 | 35031 ft | 454 kts | 68° |
| 2026-05-05 13:40 | 41.07162 | 35.85736 | 35037 ft | 454 kts | 67° |
| 2026-05-05 13:40 | 41.09458 | 35.93537 | 35039 ft | 454 kts | 68° |
| 2026-05-05 13:41 | 41.11684 | 36.01371 | 35045 ft | 454 kts | 68° |
| 2026-05-05 13:41 | 41.13855 | 36.09180 | 35052 ft | 455 kts | 69° |
| 2026-05-05 13:42 | 41.16062 | 36.17101 | 35049 ft | 455 kts | 69° |
| 2026-05-05 13:42 | 41.18267 | 36.24981 | 35048 ft | 455 kts | 69° |
| 2026-05-05 13:43 | 41.20448 | 36.32808 | 35044 ft | 455 kts | 69° |
| 2026-05-05 13:43 | 41.22632 | 36.40698 | 35044 ft | 455 kts | 70° |
| 2026-05-05 13:44 | 41.24818 | 36.48591 | 35045 ft | 455 kts | 70° |
| 2026-05-05 13:44 | 41.26179 | 36.56775 | 35038 ft | 455 kts | 87° |
| 2026-05-05 13:45 | 41.25779 | 36.65151 | 35037 ft | 455 kts | 96° |
| 2026-05-05 13:45 | 41.25165 | 36.73527 | 35036 ft | 456 kts | 96° |
| 2026-05-05 13:46 | 41.24554 | 36.81914 | 35038 ft | 456 kts | 96° |
| 2026-05-05 13:46 | 41.23931 | 36.90298 | 35045 ft | 455 kts | 96° |
| 2026-05-05 13:47 | 41.23296 | 36.98665 | 35046 ft | 455 kts | 96° |
| 2026-05-05 13:47 | 41.22651 | 37.07031 | 35041 ft | 455 kts | 96° |
| 2026-05-05 13:48 | 41.21997 | 37.15397 | 35041 ft | 456 kts | 97° |
| 2026-05-05 13:48 | 41.21337 | 37.23772 | 35042 ft | 456 kts | 96° |
| 2026-05-05 13:49 | 41.20711 | 37.32151 | 35047 ft | 456 kts | 96° |
| 2026-05-05 13:49 | 41.20107 | 37.40549 | 35040 ft | 457 kts | 96° |
| 2026-05-05 13:50 | 41.19495 | 37.48946 | 35040 ft | 457 kts | 97° |
| 2026-05-05 13:50 | 41.18869 | 37.57339 | 35045 ft | 457 kts | 96° |
| 2026-05-05 13:51 | 41.18357 | 37.65751 | 35047 ft | 457 kts | 96° |
| 2026-05-05 13:51 | 41.17720 | 37.74140 | 35048 ft | 457 kts | 97° |
| 2026-05-05 13:52 | 41.16973 | 37.82513 | 35039 ft | 457 kts | 98° |
| 2026-05-05 13:52 | 41.16216 | 37.90898 | 35039 ft | 458 kts | 98° |
| 2026-05-05 13:53 | 41.15537 | 37.99301 | 34862 ft | 458 kts | 97° |
| 2026-05-05 13:53 | 41.15209 | 38.03504 | 34628 ft | 458 kts | 97° |
| 2026-05-05 13:53 | 41.14881 | 38.07705 | 34404 ft | 457 kts | 97° |
| 2026-05-05 13:54 | 41.14551 | 38.11898 | 34178 ft | 457 kts | 97° |
| 2026-05-05 13:54 | 41.14218 | 38.16094 | 33917 ft | 458 kts | 98° |
| 2026-05-05 13:54 | 41.13879 | 38.20292 | 33651 ft | 458 kts | 98° |
| 2026-05-05 13:54 | 41.13532 | 38.24498 | 33383 ft | 458 kts | 98° |
| 2026-05-05 13:55 | 41.13182 | 38.28695 | 33117 ft | 458 kts | 98° |
| 2026-05-05 13:55 | 41.12834 | 38.32900 | 32843 ft | 458 kts | 98° |
| 2026-05-05 13:55 | 41.12488 | 38.37101 | 32590 ft | 458 kts | 98° |
| 2026-05-05 13:55 | 41.12141 | 38.41300 | 32332 ft | 458 kts | 99° |
| 2026-05-05 13:56 | 41.11791 | 38.45500 | 32080 ft | 458 kts | 99° |
| 2026-05-05 13:56 | 41.11439 | 38.49687 | 31826 ft | 458 kts | 99° |
| 2026-05-05 13:56 | 41.11085 | 38.53889 | 31562 ft | 458 kts | 99° |
| 2026-05-05 13:56 | 41.10732 | 38.58090 | 31309 ft | 459 kts | 100° |
| 2026-05-05 13:57 | 41.10375 | 38.62298 | 31064 ft | 459 kts | 100° |
| 2026-05-05 13:57 | 41.10010 | 38.66505 | 30820 ft | 459 kts | 100° |
| 2026-05-05 13:57 | 41.09643 | 38.70706 | 30583 ft | 458 kts | 100° |
| 2026-05-05 13:57 | 41.09274 | 38.74893 | 30336 ft | 456 kts | 101° |
| 2026-05-05 13:58 | 41.08908 | 38.78994 | 29610 ft | 453 kts | 101° |
| 2026-05-05 13:58 | 41.08532 | 38.83148 | 27955 ft | 455 kts | 101° |
| 2026-05-05 13:58 | 41.08153 | 38.87291 | 26655 ft | 449 kts | 100° |
| 2026-05-05 13:58 | 41.07783 | 38.91368 | 25478 ft | 442 kts | 100° |
| 2026-05-05 13:59 | 41.07057 | 38.99322 | 23360 ft | 427 kts | 99° |
| 2026-05-05 13:59 | 41.06700 | 39.03194 | 22178 ft | 419 kts | 99° |
| 2026-05-05 14:00 | 41.06002 | 39.10719 | 20427 ft | 398 kts | 99° |
| 2026-05-05 14:00 | 41.05785 | 39.13117 | 20152 ft | 395 kts | 97° |
| 2026-05-05 14:00 | 41.05726 | 39.18007 | 19498 ft | 398 kts | 91° |
| 2026-05-05 14:00 | 41.05738 | 39.21673 | 18990 ft | 397 kts | 91° |
| 2026-05-05 14:01 | 41.05746 | 39.25323 | 18489 ft | 395 kts | 91° |
| 2026-05-05 14:01 | 41.05753 | 39.28962 | 17913 ft | 394 kts | 91° |
| 2026-05-05 14:01 | 41.05758 | 39.32568 | 17388 ft | 390 kts | 91° |
| 2026-05-05 14:01 | 41.05761 | 39.36149 | 16855 ft | 386 kts | 91° |
| 2026-05-05 14:02 | 41.05762 | 39.39692 | 16324 ft | 383 kts | 91° |
| 2026-05-05 14:02 | 41.05762 | 39.43199 | 15795 ft | 379 kts | 91° |
| 2026-05-05 14:02 | 41.05763 | 39.46680 | 15265 ft | 376 kts | 91° |
| 2026-05-05 14:02 | 41.05762 | 39.50130 | 14742 ft | 372 kts | 91° |
| 2026-05-05 14:03 | 41.05757 | 39.53553 | 14215 ft | 370 kts | 91° |
| 2026-05-05 14:03 | 41.05750 | 39.56953 | 13674 ft | 369 kts | 91° |
| 2026-05-05 14:03 | 41.05744 | 39.60345 | 13120 ft | 368 kts | 91° |
| 2026-05-05 14:03 | 41.05738 | 39.63725 | 12597 ft | 366 kts | 91° |
| 2026-05-05 14:04 | 41.05734 | 39.67091 | 12071 ft | 364 kts | 91° |
| 2026-05-05 14:04 | 41.05727 | 39.70443 | 11521 ft | 364 kts | 91° |
| 2026-05-05 14:04 | 41.05719 | 39.73757 | 11004 ft | 353 kts | 91° |
| 2026-05-05 14:04 | 41.05711 | 39.76941 | 10565 ft | 337 kts | 91° |
| 2026-05-05 14:05 | 41.05704 | 39.79935 | 10435 ft | 313 kts | 91° |
| 2026-05-05 14:05 | 41.05697 | 39.82695 | 10198 ft | 296 kts | 91° |
| 2026-05-05 14:05 | 41.05687 | 39.85379 | 9823 ft | 285 kts | 91° |
| 2026-05-05 14:05 | 41.05675 | 39.87994 | 9693 ft | 286 kts | 91° |
| 2026-05-05 14:06 | 41.05662 | 39.90665 | 9558 ft | 286 kts | 91° |
| 2026-05-05 14:06 | 41.05648 | 39.93270 | 9432 ft | 287 kts | 91° |
| 2026-05-05 14:06 | 41.05636 | 39.95905 | 9193 ft | 285 kts | 91° |
| 2026-05-05 14:06 | 41.05623 | 39.98534 | 8833 ft | 284 kts | 91° |
| 2026-05-05 14:07 | 41.05611 | 40.01148 | 8464 ft | 284 kts | 92° |
| 2026-05-05 14:07 | 41.05445 | 40.03750 | 8154 ft | 282 kts | 104° |
| 2026-05-05 14:07 | 41.04849 | 40.06177 | 7982 ft | 273 kts | 112° |
| 2026-05-05 14:07 | 41.04157 | 40.08559 | 7350 ft | 280 kts | 111° |
| 2026-05-05 14:08 | 41.03377 | 40.10876 | 6881 ft | 269 kts | 125° |
| 2026-05-05 14:08 | 41.02039 | 40.12461 | 6525 ft | 254 kts | 153° |
| 2026-05-05 14:08 | 41.00372 | 40.13056 | 6152 ft | 247 kts | 179° |
| 2026-05-05 14:08 | 40.98698 | 40.12741 | 5801 ft | 241 kts | 193° |
| 2026-05-05 14:09 | 40.97067 | 40.12262 | 5446 ft | 239 kts | 192° |
| 2026-05-05 14:09 | 40.95451 | 40.11790 | 5097 ft | 238 kts | 193° |
| 2026-05-05 14:09 | 40.94390 | 40.11344 | 4860 ft | 236 kts | 206° |
| 2026-05-05 14:09 | 40.93043 | 40.10142 | 4508 ft | 233 kts | 225° |
| 2026-05-05 14:10 | 40.92091 | 40.08433 | 4190 ft | 229 kts | 246° |
| 2026-05-05 14:10 | 40.91643 | 40.06492 | 4082 ft | 216 kts | 264° |
| 2026-05-05 14:10 | 40.91662 | 40.04570 | 3990 ft | 203 kts | 281° |
| 2026-05-05 14:10 | 40.92061 | 40.02850 | 3921 ft | 191 kts | 293° |
| 2026-05-05 14:11 | 40.92567 | 40.01242 | 3800 ft | 188 kts | 293° |
| 2026-05-05 14:11 | 40.93066 | 39.99648 | 3678 ft | 187 kts | 293° |
| 2026-05-05 14:11 | 40.93564 | 39.98057 | 3399 ft | 186 kts | 293° |
| 2026-05-05 14:11 | 40.94048 | 39.96509 | 3093 ft | 177 kts | 293° |
| 2026-05-05 14:12 | 40.94503 | 39.95049 | 2817 ft | 167 kts | 293° |
| 2026-05-05 14:12 | 40.94936 | 39.93662 | 2580 ft | 157 kts | 292° |
| 2026-05-05 14:12 | 40.95335 | 39.92382 | 2343 ft | 146 kts | 292° |
| 2026-05-05 14:12 | 40.95716 | 39.91162 | 2110 ft | 142 kts | 293° |
| 2026-05-05 14:13 | 40.96088 | 39.89967 | 1890 ft | 140 kts | 293° |
| 2026-05-05 14:13 | 40.96458 | 39.88780 | 1674 ft | 139 kts | 293° |
| 2026-05-05 14:13 | 40.96828 | 39.87592 | 1456 ft | 139 kts | 293° |
| 2026-05-05 14:13 | 40.97197 | 39.86408 | 1236 ft | 139 kts | 293° |
| 2026-05-05 14:14 | 40.97563 | 39.85227 | 1055 ft | 139 kts | 293° |
| 2026-05-05 14:14 | 40.97928 | 39.84041 | 862 ft | 140 kts | 292° |
| 2026-05-05 14:14 | 40.98304 | 39.82857 | 585 ft | 139 kts | 294° |
| 2026-05-05 14:14 | 40.98673 | 39.81672 | 372 ft | 140 kts | 292° |
| 2026-05-05 14:15 | 40.99032 | 39.80478 | 144 ft | 140 kts | 294° |
| 2026-05-05 14:15 | 40.99371 | 39.79418 | 106 ft | 98 kts | 292° |
| 2026-05-05 14:15 | 40.99563 | 39.78804 | 101 ft | 45 kts | 287° |
| 2026-05-05 14:15 | 40.99551 | 39.78523 | 113 ft | 20 kts | 263° |
| 2026-05-05 14:16 | 40.99557 | 39.78339 | 115 ft | 20 kts | 290° |
| 2026-05-05 14:16 | 40.99614 | 39.78157 | 115 ft | 22 kts | 293° |
| 2026-05-05 14:16 | 40.99630 | 39.78068 | 114 ft | 8 kts | 248° |
| 2026-05-05 14:16 | 40.99584 | 39.78036 | 113 ft | 0 kts | 202° |